M I D A S
Marine Information and Data Acquisition System
Tripno 2207 of the Zeeleeuw from 2011-10-27 06:42:40 to 2011-10-27 15:51:38
Back to CruiseResearch ActivitiesStationsMapUnderway DataData graphs

EquipmentUnitsComment
TimeDGPSUTC
LatitudeDGPSDM.mWGS84
LongitudeDGPSDM.mWGS84
HeadingGyrodeg 
SOGDGPSknotsSpeed over ground
COGDGPSdegCourse over ground
DepthEcho soundermeters200 kHz
Missing or incorrect values are displayed as -999
Navigation data collected by the RV Zeeleeuw from 2011-10-27 06:36:40 to 2011-10-27 16:01:03
                                                                                    Next 1000 lines
Time Latitude Longitude Heading SOG COG Depth
2011-10-27 06:36:50 51°13.637 2°56.019 120.9 -999 140 6.3
2011-10-27 06:36:55 51°13.637 2°56.019 120.2 -999 238 6.2
2011-10-27 06:37:00 51°13.636 2°56.019 119.8 0.1 161 6.2
2011-10-27 06:37:05 51°13.636 2°56.019 119.1 0.1 164 6.2
2011-10-27 06:37:10 51°13.636 2°56.019 118.4 0.1 197 6.1
2011-10-27 06:37:15 51°13.636 2°56.019 117.7 0.1 186 6.1
2011-10-27 06:37:20 51°13.636 2°56.019 116.9 -999 211 6.1
2011-10-27 06:37:25 51°13.636 2°56.018 116.1 0.1 234 6
2011-10-27 06:37:30 51°13.636 2°56.018 115.3 -999 225 6
2011-10-27 06:37:35 51°13.636 2°56.019 114.4 0.1 178 6
2011-10-27 06:37:40 51°13.636 2°56.019 113.6 0.1 162 6.1
2011-10-27 06:37:45 51°13.636 2°56.019 112.6 0.1 161 6.1
2011-10-27 06:37:50 51°13.636 2°56.019 111.8 0.1 165 6.1
2011-10-27 06:37:55 51°13.636 2°56.018 111 0.1 196 6
2011-10-27 06:38:00 51°13.635 2°56.018 110.2 0.1 172 6
2011-10-27 06:38:05 51°13.635 2°56.018 109.2 0.1 166 6
2011-10-27 06:38:10 51°13.635 2°56.018 108.4 0.1 220 6
2011-10-27 06:38:15 51°13.635 2°56.018 107.5 0.1 300 6.1
2011-10-27 06:38:20 51°13.635 2°56.018 106.8 0.3 268 6
2011-10-27 06:38:25 51°13.636 2°56.017 106.2 0.4 286 5.9
2011-10-27 06:38:30 51°13.636 2°56.016 106.1 0.6 287 5.9
2011-10-27 06:38:35 51°13.636 2°56.014 106 0.8 288 5.9
2011-10-27 06:38:40 51°13.636 2°56.012 106.2 1 283 6.1
2011-10-27 06:38:45 51°13.637 2°56.008 106.8 1.3 287 6.2
2011-10-27 06:38:50 51°13.638 2°56.005 107.5 1.6 287 -999
2011-10-27 06:38:56 51°13.638 2°56.001 108.4 1.7 289 -999
2011-10-27 06:39:01 51°13.64 2°55.997 109.4 1.9 290 -999
2011-10-27 06:39:08 51°13.641 2°55.99 110.1 2.2 293 -999
2011-10-27 06:39:13 51°13.643 2°55.985 110.4 2.5 294 -999
2011-10-27 06:39:19 51°13.644 2°55.979 110.4 2.6 295 -999
2011-10-27 06:39:23 51°13.646 2°55.975 110.4 2.7 294 -999
2011-10-27 06:39:28 51°13.647 2°55.969 110.5 2.8 294 -999
2011-10-27 06:39:33 51°13.649 2°55.963 110.3 2.9 293 -999
2011-10-27 06:39:39 51°13.651 2°55.955 109.7 3 293 -999
2011-10-27 06:39:44 51°13.652 2°55.949 109 3.1 292 -999
2011-10-27 06:39:49 51°13.654 2°55.943 108.4 3.1 291 -999
2011-10-27 06:39:53 51°13.655 2°55.937 108.1 3.2 291 -999
2011-10-27 06:39:59 51°13.657 2°55.929 108 3.2 290 -999
2011-10-27 06:40:04 51°13.658 2°55.923 107.9 3.2 290 -999
2011-10-27 06:40:09 51°13.66 2°55.916 107.9 3.2 289 -999
2011-10-27 06:40:13 51°13.661 2°55.911 108.2 3.2 290 -999
2011-10-27 06:40:19 51°13.663 2°55.902 108.6 3.3 290 -999
2011-10-27 06:40:24 51°13.665 2°55.895 109.3 3.3 291 -999
2011-10-27 06:40:29 51°13.666 2°55.888 110 3.4 290 -999
2011-10-27 06:40:33 51°13.667 2°55.882 110.5 3.4 291 -999
2011-10-27 06:40:38 51°13.669 2°55.875 110.9 3.6 291 -999
2011-10-27 06:40:44 51°13.671 2°55.866 111.2 3.6 293 -999
2011-10-27 06:40:49 51°13.673 2°55.859 111.2 3.6 291 -999
2011-10-27 06:40:53 51°13.675 2°55.853 111 3.6 292 -999
2011-10-27 06:40:58 51°13.677 2°55.846 110.6 3.6 292 -999
2011-10-27 06:41:03 51°13.679 2°55.838 110.2 3.6 292 -999
2011-10-27 06:41:09 51°13.681 2°55.829 109.3 3.7 291 -999
2011-10-27 06:41:13 51°13.682 2°55.823 108.7 3.6 290 -999
2011-10-27 06:41:18 51°13.684 2°55.815 107.6 3.7 290 -999
2011-10-27 06:41:23 51°13.686 2°55.808 106.6 3.7 288 -999
2011-10-27 06:41:29 51°13.687 2°55.798 105.3 3.7 288 -999
2011-10-27 06:41:33 51°13.689 2°55.792 103.9 3.7 286 -999
2011-10-27 06:41:39 51°13.69 2°55.782 102.5 3.8 286 -999
2011-10-27 06:41:43 51°13.691 2°55.776 101 3.7 283 -999
2011-10-27 06:41:48 51°13.692 2°55.768 99 3.6 282 -999
2011-10-27 06:41:53 51°13.693 2°55.761 97.7 3.4 281 -999
2011-10-27 06:41:59 51°13.694 2°55.752 96.2 3.2 280 -999
2011-10-27 06:42:04 51°13.694 2°55.746 94.8 3 279 -999
2011-10-27 06:42:09 51°13.695 2°55.74 93.4 2.5 280 -999
2011-10-27 06:42:13 51°13.695 2°55.737 91.7 1.9 278 -999
2011-10-27 06:42:19 51°13.696 2°55.734 88.6 1 288 -999
2011-10-27 06:42:24 51°13.696 2°55.734 83.9 0.4 325 -999
2011-10-27 06:42:29 51°13.697 2°55.734 79.3 0.7 24 11.3
2011-10-27 06:42:33 51°13.698 2°55.736 74.2 1.1 44 11.5
2011-10-27 06:42:38 51°13.699 2°55.739 68.6 1.7 47 11.1
2011-10-27 06:42:43 51°13.701 2°55.742 60.8 2.2 45 -999
2011-10-27 06:42:49 51°13.705 2°55.746 50.8 2.6 37 11.6
2011-10-27 06:42:53 51°13.708 2°55.748 41.2 2.6 28 10.9
2011-10-27 06:42:58 51°13.711 2°55.751 34.9 2.6 26 11.5
2011-10-27 06:43:03 51°13.714 2°55.752 29.8 2.2 18 10.8
2011-10-27 06:43:08 51°13.716 2°55.754 24.8 1.7 20 11
2011-10-27 06:43:13 51°13.717 2°55.754 21.9 1.1 16 11
2011-10-27 06:43:17 51°13.718 2°55.754 18.6 0.7 6 11.2
2011-10-27 06:43:22 51°13.719 2°55.754 15.6 0.4 9 11.3
2011-10-27 06:43:28 51°13.718 2°55.754 12.4 0.2 208 11.2
2011-10-27 06:43:33 51°13.717 2°55.754 10.3 0.6 198 -999
2011-10-27 06:43:37 51°13.716 2°55.753 8.2 1 194 11
2011-10-27 06:43:42 51°13.715 2°55.753 6.3 1 191 11.1
2011-10-27 06:43:48 51°13.714 2°55.752 4.5 0.6 203 -999
2011-10-27 06:43:53 51°13.714 2°55.752 3.1 0.2 247 -999
2011-10-27 06:43:59 51°13.715 2°55.751 1.5 0.6 332 -999
2011-10-27 06:44:04 51°13.716 2°55.751 358.4 0.9 344 -999
2011-10-27 06:44:08 51°13.717 2°55.75 353.1 1.3 343 -999
2011-10-27 06:44:13 51°13.719 2°55.749 347.8 1.6 338 -999
2011-10-27 06:44:19 51°13.722 2°55.746 341.9 2.1 334 -999
2011-10-27 06:44:24 51°13.725 2°55.744 335.7 2.4 330 -999
2011-10-27 06:44:28 51°13.728 2°55.741 330.4 2.7 327 -999
2011-10-27 06:44:33 51°13.731 2°55.737 326.7 3 326 -999
2011-10-27 06:44:39 51°13.735 2°55.732 324.3 3.3 323 10.6
2011-10-27 06:44:43 51°13.739 2°55.728 322.1 3.6 322 -999
2011-10-27 06:44:49 51°13.743 2°55.722 321 3.8 322 -999
2011-10-27 06:44:53 51°13.747 2°55.718 320.9 3.8 323 -999
2011-10-27 06:44:58 51°13.751 2°55.713 321.5 3.8 322 10.2
2011-10-27 06:45:04 51°13.756 2°55.707 322.2 4 324 -999
2011-10-27 06:45:09 51°13.761 2°55.701 323.1 4.2 324 10.7
2011-10-27 06:45:13 51°13.765 2°55.696 323.9 4.3 324 10.5
2011-10-27 06:45:18 51°13.771 2°55.691 324.6 4.6 325 10.2
2011-10-27 06:45:23 51°13.776 2°55.685 325.6 4.7 326 10.3
2011-10-27 06:45:28 51°13.782 2°55.679 326.5 4.9 328 10.2
2011-10-27 06:45:33 51°13.788 2°55.673 327.4 5.1 329 10.4
2011-10-27 06:45:37 51°13.793 2°55.669 329.3 5.2 330 10.7
2011-10-27 06:45:42 51°13.8 2°55.663 330.6 5.4 331 10.4
2011-10-27 06:45:48 51°13.808 2°55.656 332 5.6 333 10.4
2011-10-27 06:45:53 51°13.815 2°55.651 332.8 5.6 334 -999
2011-10-27 06:45:58 51°13.822 2°55.645 333.6 5.7 335 10.7
2011-10-27 06:46:03 51°13.83 2°55.64 334.4 5.8 335 11.1
2011-10-27 06:46:08 51°13.837 2°55.634 334.9 5.9 336 10.6
2011-10-27 06:46:13 51°13.845 2°55.629 335.4 6 335 10.3
2011-10-27 06:46:18 51°13.853 2°55.623 335.4 6.1 336 10.2
2011-10-27 06:46:23 51°13.86 2°55.617 335.4 6.2 335 10.3
2011-10-27 06:46:28 51°13.868 2°55.612 335.5 6.2 336 10.2
2011-10-27 06:46:33 51°13.876 2°55.606 335.7 6.3 336 10.3
2011-10-27 06:46:37 51°13.882 2°55.602 336.1 6.3 337 10.3
2011-10-27 06:46:42 51°13.891 2°55.596 336.4 6.3 337 10.7
2011-10-27 06:46:47 51°13.899 2°55.59 336.8 6.4 337 10.3
2011-10-27 06:46:52 51°13.907 2°55.584 336.9 6.4 337 10.2
2011-10-27 06:46:57 51°13.916 2°55.578 336.9 6.6 337 10.4
2011-10-27 06:47:01 51°13.923 2°55.574 336.9 6.8 337 10.3
2011-10-27 06:47:06 51°13.932 2°55.568 337.1 7 337 10.2
2011-10-27 06:47:11 51°13.941 2°55.561 337.1 7.3 337 10.7
2011-10-27 06:47:16 51°13.95 2°55.555 336.9 7.5 336 10
2011-10-27 06:47:21 51°13.96 2°55.548 336.9 7.7 337 10.2
2011-10-27 06:47:25 51°13.968 2°55.543 336.6 7.8 336 10.3
2011-10-27 06:47:30 51°13.978 2°55.536 336.3 7.9 336 10.3
2011-10-27 06:47:35 51°13.988 2°55.529 336.3 8 337 10.6
2011-10-27 06:47:40 51°13.998 2°55.521 336.1 8.2 335 10.2
2011-10-27 06:47:45 51°14.009 2°55.514 335.8 8.2 336 10.2
2011-10-27 06:47:50 51°14.019 2°55.506 335.8 8.3 335 10.4
2011-10-27 06:47:55 51°14.03 2°55.499 335.4 8.4 335 10
2011-10-27 06:48:00 51°14.04 2°55.491 335.1 8.4 335 -999
2011-10-27 06:48:05 51°14.051 2°55.483 335.5 8.4 336 10.2
2011-10-27 06:48:10 51°14.062 2°55.475 335.4 8.4 335 9.9
2011-10-27 06:48:15 51°14.073 2°55.467 335.3 8.5 335 9.9
2011-10-27 06:48:20 51°14.083 2°55.46 335.4 8.5 335 9.9
2011-10-27 06:48:25 51°14.094 2°55.451 335.1 8.6 334 9.8
2011-10-27 06:48:30 51°14.104 2°55.443 334 8.6 333 9.9
2011-10-27 06:48:35 51°14.115 2°55.435 333.8 8.5 334 9.8
2011-10-27 06:48:40 51°14.126 2°55.426 334 8.6 334 9.8
2011-10-27 06:48:45 51°14.136 2°55.418 334.3 8.6 334 9.7
2011-10-27 06:48:50 51°14.147 2°55.409 333.8 8.6 332 9.7
2011-10-27 06:48:55 51°14.157 2°55.4 332.5 8.5 332 9.7
2011-10-27 06:49:00 51°14.167 2°55.391 332 8.5 331 9.7
2011-10-27 06:49:05 51°14.178 2°55.382 331.2 8.5 331 9.7
2011-10-27 06:49:10 51°14.188 2°55.373 330.4 8.5 330 -999
2011-10-27 06:49:15 51°14.198 2°55.363 329.7 8.5 330 9.8
2011-10-27 06:49:20 51°14.208 2°55.354 330.4 8.5 331 9.8
2011-10-27 06:49:25 51°14.219 2°55.345 331.3 8.5 331 9.8
2011-10-27 06:49:29 51°14.227 2°55.338 331.8 8.5 332 9.8
2011-10-27 06:49:35 51°14.239 2°55.326 331.4 8.8 330 9.8
2011-10-27 06:49:40 51°14.25 2°55.317 330.9 9.1 330 9.8
2011-10-27 06:49:45 51°14.262 2°55.306 330.7 9.3 330 9.8
2011-10-27 06:49:50 51°14.273 2°55.295 330.1 9.6 329 9.7
2011-10-27 06:49:56 51°14.287 2°55.283 329.8 9.9 330 -999
2011-10-27 06:50:01 51°14.299 2°55.271 330.2 10 329 9.7
2011-10-27 06:50:06 51°14.311 2°55.26 329.6 10.2 329 9.7
2011-10-27 06:50:11 51°14.324 2°55.248 329.6 10.3 330 9.7
2011-10-27 06:50:15 51°14.334 2°55.239 330.3 10.5 329 9.8
2011-10-27 06:50:20 51°14.346 2°55.227 330.5 10.6 329 9.8
2011-10-27 06:50:25 51°14.359 2°55.215 329.3 10.6 327 9.7
2011-10-27 06:50:30 51°14.371 2°55.202 328.8 10.6 329 9.8
2011-10-27 06:50:35 51°14.384 2°55.19 329 10.7 329 -999
2011-10-27 06:50:40 51°14.397 2°55.178 329 10.7 328 9.8
2011-10-27 06:50:45 51°14.409 2°55.165 328.3 10.7 328 9.9
2011-10-27 06:50:50 51°14.422 2°55.152 328.7 10.8 329 9.9
2011-10-27 06:50:55 51°14.434 2°55.139 328.1 10.8 327 9.8
2011-10-27 06:51:00 51°14.447 2°55.127 327.3 10.8 328 9.9
2011-10-27 06:51:05 51°14.46 2°55.113 327.3 10.8 326 9.6
2011-10-27 06:51:10 51°14.472 2°55.1 326.7 10.8 326 10.2
2011-10-27 06:51:15 51°14.484 2°55.086 325.6 11 324 10.3
2011-10-27 06:51:20 51°14.497 2°55.072 325.1 11 326 10.3
2011-10-27 06:51:25 51°14.509 2°55.058 325.5 11.1 325 10.4
2011-10-27 06:51:30 51°14.522 2°55.044 325.6 11.1 325 10.5
2011-10-27 06:51:35 51°14.534 2°55.028 325.1 11.1 321 10.5
2011-10-27 06:51:40 51°14.546 2°55.012 323.8 11.1 320 10.7
2011-10-27 06:51:45 51°14.557 2°54.996 322.8 11.2 318 10.7
2011-10-27 06:51:50 51°14.569 2°54.98 323.3 11.2 321 10.8
2011-10-27 06:51:55 51°14.581 2°54.964 325.2 11.3 320 10.9
2011-10-27 06:52:00 51°14.593 2°54.948 325.1 11.3 319 10.8
2011-10-27 06:52:05 51°14.605 2°54.932 324.5 11.3 320 10.7
2011-10-27 06:52:10 51°14.617 2°54.916 325.2 11.2 320 10.8
2011-10-27 06:52:15 51°14.629 2°54.9 325.6 11.2 321 10.6
2011-10-27 06:52:20 51°14.641 2°54.884 325.2 11.2 319 10.5
2011-10-27 06:52:25 51°14.653 2°54.869 325.5 11.2 321 10.5
2011-10-27 06:52:30 51°14.665 2°54.853 325.9 11.2 320 10.6
2011-10-27 06:52:35 51°14.677 2°54.838 325.8 11.3 321 10.6
2011-10-27 06:52:40 51°14.689 2°54.822 326.2 11.2 321 10.5
2011-10-27 06:52:45 51°14.701 2°54.807 326.6 11.2 321 10.4
2011-10-27 06:52:50 51°14.714 2°54.791 326.5 11.2 321 10.3
2011-10-27 06:52:55 51°14.726 2°54.775 326 11.2 321 10.4
2011-10-27 06:53:00 51°14.738 2°54.761 326.8 11.1 323 10.3
2011-10-27 06:53:05 51°14.75 2°54.746 328.4 11.1 323 10.4
2011-10-27 06:53:10 51°14.763 2°54.731 328.7 11.2 322 10.6
2011-10-27 06:53:15 51°14.775 2°54.715 327.3 11.2 321 10.7
2011-10-27 06:53:20 51°14.787 2°54.699 325.5 11.3 321 10.5
2011-10-27 06:53:25 51°14.799 2°54.684 325.6 11.4 322 10.6
2011-10-27 06:53:30 51°14.812 2°54.668 326.2 11.6 322 10.8
2011-10-27 06:53:35 51°14.825 2°54.653 326.9 11.7 324 10.6
2011-10-27 06:53:40 51°14.838 2°54.637 327.6 11.9 324 10.9
2011-10-27 06:53:45 51°14.852 2°54.622 328.3 11.9 325 10.8
2011-10-27 06:53:50 51°14.865 2°54.607 328.9 12 325 10.9
2011-10-27 06:53:55 51°14.879 2°54.592 329.3 12 326 10.8
2011-10-27 06:54:00 51°14.893 2°54.577 329.5 12.1 325 10.8
2011-10-27 06:54:05 51°14.907 2°54.561 329.3 12.1 324 10.9
2011-10-27 06:54:10 51°14.92 2°54.545 328 12.2 323 10.7
2011-10-27 06:54:15 51°14.933 2°54.528 326.2 12.2 321 10.6
2011-10-27 06:54:20 51°14.946 2°54.511 324.4 12.2 320 10.7
2011-10-27 06:54:25 51°14.959 2°54.493 323.4 12.3 319 10.6
2011-10-27 06:54:30 51°14.972 2°54.476 322.8 12.2 319 10.5
2011-10-27 06:54:35 51°14.985 2°54.458 322.7 12.2 319 10.4
2011-10-27 06:54:40 51°14.997 2°54.44 322.6 12.2 319 10.4
2011-10-27 06:54:45 51°15.01 2°54.423 322.6 12.2 320 10.3
2011-10-27 06:54:50 51°15.024 2°54.406 323.3 12.2 321 10.6
2011-10-27 06:54:55 51°15.037 2°54.39 324.5 12.1 322 10.5
2011-10-27 06:55:00 51°15.05 2°54.373 325.2 12.2 322 10.5
2011-10-27 06:55:05 51°15.064 2°54.357 326.3 12.3 324 10.2
2011-10-27 06:55:10 51°15.078 2°54.342 328.1 12.2 326 10.2
2011-10-27 06:55:15 51°15.092 2°54.328 329.6 12.1 327 10.3
2011-10-27 06:55:20 51°15.106 2°54.313 330.4 12.2 328 10.5
2011-10-27 06:55:25 51°15.121 2°54.299 331.5 12.2 329 10.5
2011-10-27 06:55:29 51°15.132 2°54.287 331.8 12.3 327 10.5
2011-10-27 06:55:35 51°15.15 2°54.27 331.8 12.3 328 10.5
2011-10-27 06:55:40 51°15.164 2°54.255 331.7 12.2 327 10.8
2011-10-27 06:55:45 51°15.178 2°54.241 331.4 12.2 327 10.8
2011-10-27 06:55:50 51°15.192 2°54.226 331.2 12.3 327 10.6
2011-10-27 06:55:55 51°15.206 2°54.212 331.1 12.2 327 10.7
2011-10-27 06:56:00 51°15.22 2°54.196 331 12.2 326 10.7
2011-10-27 06:56:05 51°15.234 2°54.181 330.7 12.2 326 10.6
2011-10-27 06:56:10 51°15.249 2°54.166 330.3 12.2 326 10.7
2011-10-27 06:56:15 51°15.262 2°54.151 330.3 12.2 326 10.6
2011-10-27 06:56:20 51°15.276 2°54.135 329.7 12.3 325 10.6
2011-10-27 06:56:25 51°15.29 2°54.12 329.6 12.2 325 10.7
2011-10-27 06:56:30 51°15.304 2°54.104 329.4 12.3 325 10.6
2011-10-27 06:56:35 51°15.318 2°54.089 329.3 12.3 326 10.7
2011-10-27 06:56:40 51°15.332 2°54.073 329.8 12.2 326 10.7
2011-10-27 06:56:45 51°15.346 2°54.058 330.2 12.2 326 10.7
2011-10-27 06:56:50 51°15.36 2°54.043 330.1 12.3 325 10.7
2011-10-27 06:56:55 51°15.374 2°54.027 329.7 12.3 325 10.8
2011-10-27 06:57:00 51°15.388 2°54.011 329.4 12.4 324 10.8
2011-10-27 06:57:05 51°15.401 2°53.995 329 12.3 324 10.8
2011-10-27 06:57:10 51°15.415 2°53.978 328.4 12.3 322 10.8
2011-10-27 06:57:15 51°15.428 2°53.962 327.5 12.2 322 10.9
2011-10-27 06:57:20 51°15.441 2°53.945 327.1 12.3 322 10.9
2011-10-27 06:57:25 51°15.455 2°53.928 326.7 12.3 321 10.9
2011-10-27 06:57:30 51°15.468 2°53.91 326.7 12.4 321 10.9
2011-10-27 06:57:35 51°15.482 2°53.893 326.7 12.4 321 10.8
2011-10-27 06:57:40 51°15.495 2°53.876 326.7 12.4 321 10.8
2011-10-27 06:57:45 51°15.508 2°53.859 326.6 12.4 321 10.8
2011-10-27 06:57:49 51°15.519 2°53.846 326.4 12.4 321 10.8
2011-10-27 06:57:55 51°15.535 2°53.825 326.1 12.3 321 10.9
2011-10-27 06:58:00 51°15.548 2°53.807 325.9 12.3 320 10.8
2011-10-27 06:58:05 51°15.561 2°53.79 325.4 12.3 320 10.9
2011-10-27 06:58:10 51°15.574 2°53.772 325.1 12.4 319 10.9
2011-10-27 06:58:15 51°15.587 2°53.754 324.5 12.4 319 10.9
2011-10-27 06:58:20 51°15.6 2°53.736 323.8 12.4 318 10.9
2011-10-27 06:58:25 51°15.612 2°53.717 323.1 12.4 318 10.9
2011-10-27 06:58:29 51°15.623 2°53.703 323.8 12.3 320 10.9
2011-10-27 06:58:35 51°15.638 2°53.682 324.3 12.3 319 11
2011-10-27 06:58:40 51°15.651 2°53.664 324.7 12.3 320 10.9
2011-10-27 06:58:45 51°15.664 2°53.647 325.4 12.4 320 11.1
2011-10-27 06:58:50 51°15.678 2°53.629 325.6 12.4 320 11
2011-10-27 06:58:55 51°15.691 2°53.612 325.8 12.3 320 11
2011-10-27 06:59:00 51°15.704 2°53.595 325.9 12.3 321 11
2011-10-27 06:59:05 51°15.717 2°53.577 326.3 12.3 321 11.1
2011-10-27 06:59:10 51°15.731 2°53.56 326.5 12.3 321 11.1
2011-10-27 06:59:15 51°15.744 2°53.544 326.8 12.3 322 11.1
2011-10-27 06:59:20 51°15.758 2°53.528 328 12.3 323 11.1
2011-10-27 06:59:25 51°15.771 2°53.511 328.7 12.3 323 11.2
2011-10-27 06:59:30 51°15.785 2°53.495 329 12.3 324 11.2
2011-10-27 06:59:35 51°15.799 2°53.479 329.3 12.3 324 11.3
2011-10-27 06:59:40 51°15.813 2°53.463 329.5 12.3 325 11.3
2011-10-27 06:59:45 51°15.827 2°53.448 330.3 12.2 325 11.3
2011-10-27 06:59:50 51°15.841 2°53.433 331.1 12.2 326 11.3
2011-10-27 06:59:55 51°15.855 2°53.418 331.9 12.2 327 11.4
2011-10-27 07:00:00 51°15.869 2°53.403 332.5 12.2 328 11.5
2011-10-27 07:00:05 51°15.884 2°53.39 333.2 12.1 328 11.5
2011-10-27 07:00:10 51°15.898 2°53.375 334 12.2 329 11.6
2011-10-27 07:00:15 51°15.912 2°53.362 334.5 12.1 329 11.5
2011-10-27 07:00:20 51°15.927 2°53.348 334.8 12.1 329 11.6
2011-10-27 07:00:25 51°15.941 2°53.334 334.8 12.1 329 11.6
2011-10-27 07:00:30 51°15.956 2°53.32 334.8 12.2 329 11.6
2011-10-27 07:00:35 51°15.97 2°53.306 334.9 12.1 329 11.3
2011-10-27 07:00:40 51°15.984 2°53.292 334.7 12 328 11.4
2011-10-27 07:00:45 51°15.998 2°53.278 334.3 12.1 327 11.4
2011-10-27 07:00:50 51°16.013 2°53.263 333.3 12.2 327 11.1
2011-10-27 07:00:55 51°16.027 2°53.248 333.1 12.2 327 10.9
2011-10-27 07:01:00 51°16.041 2°53.233 332.8 12.1 326 11.5
2011-10-27 07:01:05 51°16.055 2°53.218 332.3 12.1 326 11.5
2011-10-27 07:01:10 51°16.069 2°53.203 332.1 12.2 326 11.4
2011-10-27 07:01:15 51°16.083 2°53.189 332.5 12.2 327 11.1
2011-10-27 07:01:20 51°16.097 2°53.174 332.9 12.2 327 11.7
2011-10-27 07:01:25 51°16.111 2°53.16 333.2 12.1 327 11.7
2011-10-27 07:01:30 51°16.125 2°53.145 333.5 12.1 328 11.5
2011-10-27 07:01:35 51°16.14 2°53.131 333.8 12.1 328 11.2
2011-10-27 07:01:40 51°16.154 2°53.117 334.4 12.1 329 11.6
2011-10-27 07:01:45 51°16.168 2°53.103 335 12.1 329 11.4
2011-10-27 07:01:50 51°16.183 2°53.09 335.4 12.1 329 11
2011-10-27 07:01:55 51°16.197 2°53.077 336.1 12.1 331 11.1
2011-10-27 07:02:00 51°16.212 2°53.064 337 12 332 11.1
2011-10-27 07:02:05 51°16.226 2°53.052 338.1 11.9 333 11.3
2011-10-27 07:02:10 51°16.241 2°53.041 339.6 11.9 334 11.2
2011-10-27 07:02:15 51°16.256 2°53.029 340 11.9 334 11.2
2011-10-27 07:02:20 51°16.271 2°53.018 340.5 11.9 336 11.3
2011-10-27 07:02:25 51°16.286 2°53.007 341.3 11.8 335 11.3
2011-10-27 07:02:30 51°16.301 2°52.996 341.3 11.9 336 11.3
2011-10-27 07:02:35 51°16.316 2°52.986 341.6 11.8 336 11.3
2011-10-27 07:02:40 51°16.331 2°52.975 341.4 11.9 336 11.2
2011-10-27 07:02:45 51°16.346 2°52.964 341.2 11.9 336 11.2
2011-10-27 07:02:50 51°16.361 2°52.953 341 11.9 335 11.3
2011-10-27 07:02:55 51°16.376 2°52.941 340.5 11.9 335 11.2
2011-10-27 07:03:00 51°16.391 2°52.93 340.2 11.9 336 11.1
2011-10-27 07:03:05 51°16.406 2°52.92 340.2 11.9 336 11.3
2011-10-27 07:03:10 51°16.421 2°52.908 340.2 11.9 335 11.2
2011-10-27 07:03:15 51°16.436 2°52.897 340 11.9 335 11.2
2011-10-27 07:03:20 51°16.451 2°52.886 339.8 11.9 335 11.1
2011-10-27 07:03:25 51°16.466 2°52.874 339.9 12 334 11.2
2011-10-27 07:03:30 51°16.481 2°52.863 339.6 11.9 335 11.1
2011-10-27 07:03:35 51°16.496 2°52.852 339.6 12 335 11.2
2011-10-27 07:03:40 51°16.511 2°52.841 339.6 11.9 334 11
2011-10-27 07:03:45 51°16.526 2°52.829 339.5 11.9 335 10.9
2011-10-27 07:03:50 51°16.541 2°52.818 339.5 12 334 10.8
2011-10-27 07:03:55 51°16.555 2°52.806 339.3 11.9 334 10.7
2011-10-27 07:04:00 51°16.57 2°52.795 338.9 11.8 334 10.7
2011-10-27 07:04:05 51°16.585 2°52.783 338.4 11.8 333 10.6
2011-10-27 07:04:10 51°16.599 2°52.771 337.8 11.9 332 10.5
2011-10-27 07:04:15 51°16.614 2°52.758 337 11.8 332 10.5
2011-10-27 07:04:20 51°16.629 2°52.746 337 11.9 333 10.4
2011-10-27 07:04:25 51°16.643 2°52.735 337.8 11.9 333 10.3
2011-10-27 07:04:30 51°16.658 2°52.722 337.9 11.8 333 10.2
2011-10-27 07:04:35 51°16.672 2°52.711 337.8 11.7 333 10.1
2011-10-27 07:04:40 51°16.687 2°52.699 337.6 11.8 333 9.9
2011-10-27 07:04:45 51°16.701 2°52.687 337.3 11.8 333 9.8
2011-10-27 07:04:50 51°16.716 2°52.675 337.6 11.7 334 9.5
2011-10-27 07:04:55 51°16.73 2°52.663 338.1 11.7 333 9.3
2011-10-27 07:05:00 51°16.744 2°52.652 338.3 11.4 333 9
2011-10-27 07:05:05 51°16.758 2°52.64 337.9 11.5 332 8.9
2011-10-27 07:05:10 51°16.773 2°52.628 337.4 11.6 332 9
2011-10-27 07:05:15 51°16.787 2°52.616 337.1 11.8 331 9.1
2011-10-27 07:05:20 51°16.801 2°52.605 337.7 11.7 334 9
2011-10-27 07:05:25 51°16.816 2°52.594 339 11.6 335 8.9
2011-10-27 07:05:30 51°16.83 2°52.583 339.9 11.5 336 8.8
2011-10-27 07:05:35 51°16.845 2°52.574 341.3 11.5 337 8.8
2011-10-27 07:05:40 51°16.86 2°52.564 342.6 11.5 338 8.9
2011-10-27 07:05:45 51°16.874 2°52.556 343.6 11.4 339 9
2011-10-27 07:05:50 51°16.889 2°52.547 344.5 11.4 340 9
2011-10-27 07:05:55 51°16.904 2°52.539 345.3 11.4 341 9
2011-10-27 07:06:00 51°16.919 2°52.532 346.6 11.4 343 9
2011-10-27 07:06:05 51°16.934 2°52.524 347.6 11.3 343 8.9
2011-10-27 07:06:10 51°16.949 2°52.517 348.1 11.4 342 8.8
2011-10-27 07:06:15 51°16.964 2°52.509 347.8 11.3 343 8.8
2011-10-27 07:06:20 51°16.979 2°52.502 348 11.3 343 8.7
2011-10-27 07:06:25 51°16.994 2°52.495 348.5 11.2 344 8.6
2011-10-27 07:06:30 51°17.009 2°52.488 348.5 11.2 343 8.8
2011-10-27 07:06:35 51°17.024 2°52.481 348.5 11.3 344 8.8
2011-10-27 07:06:40 51°17.039 2°52.473 348.9 11.3 343 8.9
2011-10-27 07:06:45 51°17.054 2°52.466 348.5 11.3 344 8.9
2011-10-27 07:06:49 51°17.066 2°52.46 348.5 11.4 343 8.9
2011-10-27 07:06:55 51°17.084 2°52.452 348.5 11.3 344 8.9
2011-10-27 07:07:00 51°17.099 2°52.445 348.9 11.3 344 8.9
2011-10-27 07:07:05 51°17.114 2°52.439 349.3 11.2 345 8.9
2011-10-27 07:07:09 51°17.126 2°52.434 349.8 11.3 344 9
2011-10-27 07:07:15 51°17.145 2°52.425 349.6 11.4 345 9
2011-10-27 07:07:20 51°17.16 2°52.419 349.5 11.4 344 9
2011-10-27 07:07:25 51°17.175 2°52.412 349.8 11.3 344 9.2
2011-10-27 07:07:30 51°17.19 2°52.406 349.9 11.3 345 9.1
2011-10-27 07:07:35 51°17.205 2°52.398 349.9 11.4 343 9.2
2011-10-27 07:07:40 51°17.22 2°52.391 349.2 11.3 344 9.2
2011-10-27 07:07:45 51°17.235 2°52.383 348.7 11.3 341 9.3
2011-10-27 07:07:50 51°17.25 2°52.375 347 11.4 341 9.3
2011-10-27 07:07:55 51°17.264 2°52.366 346.3 11.3 340 9.5
2011-10-27 07:08:00 51°17.279 2°52.358 345.6 11.3 340 9.5
2011-10-27 07:08:05 51°17.294 2°52.349 345 11.3 340 9.5
2011-10-27 07:08:10 51°17.309 2°52.342 346.4 11.2 344 9.5
2011-10-27 07:08:15 51°17.324 2°52.334 347.8 11.3 342 9.6
2011-10-27 07:08:20 51°17.339 2°52.328 348.1 11.3 344 9.6
2011-10-27 07:08:25 51°17.354 2°52.322 349.8 11.2 346 9.6
2011-10-27 07:08:30 51°17.369 2°52.317 351.8 11.2 348 9.6
2011-10-27 07:08:35 51°17.385 2°52.312 353 11.2 349 9.6
2011-10-27 07:08:40 51°17.4 2°52.308 354.3 11.2 350 9.5
2011-10-27 07:08:45 51°17.415 2°52.305 355.7 11.1 352 9.6
2011-10-27 07:08:49 51°17.427 2°52.302 356.9 11.1 353 9.6
2011-10-27 07:08:55 51°17.446 2°52.3 358.2 11.1 355 9.7
2011-10-27 07:09:00 51°17.461 2°52.299 -999 11.1 358 9.7
2011-10-27 07:09:05 51°17.477 2°52.298 2 11 359 9.6
2011-10-27 07:09:09 51°17.489 2°52.298 3.7 11.1 -999 9.7
2011-10-27 07:09:15 51°17.507 2°52.3 5.1 11 2 9.6
2011-10-27 07:09:20 51°17.522 2°52.301 5.9 11 3 9.5
2011-10-27 07:09:25 51°17.538 2°52.302 6.8 11 2 9.6
2011-10-27 07:09:30 51°17.553 2°52.304 7 11 3 9.6
2011-10-27 07:09:35 51°17.568 2°52.305 7.5 10.9 4 9.6
2011-10-27 07:09:40 51°17.583 2°52.307 7.9 11 4 9.5
2011-10-27 07:09:45 51°17.598 2°52.309 8.1 11 4 9.5
2011-10-27 07:09:50 51°17.613 2°52.31 7.6 11 3 9.5
2011-10-27 07:09:55 51°17.628 2°52.312 7.7 10.9 4 9.4
2011-10-27 07:10:00 51°17.644 2°52.313 7.8 10.9 3 9.5
2011-10-27 07:10:05 51°17.659 2°52.315 7.5 11 4 9.5
2011-10-27 07:10:10 51°17.674 2°52.316 7.6 11 3 9.5
2011-10-27 07:10:15 51°17.689 2°52.317 7.3 10.9 2 9.4
2011-10-27 07:10:20 51°17.704 2°52.319 6.7 10.9 3 9.5
2011-10-27 07:10:25 51°17.719 2°52.32 7.2 11 4 9.5
2011-10-27 07:10:30 51°17.735 2°52.321 7.3 11 3 9.6
2011-10-27 07:10:35 51°17.75 2°52.323 7.3 10.9 3 9.5
2011-10-27 07:10:40 51°17.765 2°52.324 7.3 11 3 9.5
2011-10-27 07:10:45 51°17.78 2°52.326 7.5 11 5 9.5
2011-10-27 07:10:50 51°17.795 2°52.328 8.2 11 5 9.6
2011-10-27 07:10:55 51°17.81 2°52.33 8.9 10.9 5 9.5
2011-10-27 07:11:00 51°17.826 2°52.333 9 10.9 6 9.6
2011-10-27 07:11:05 51°17.841 2°52.335 9.9 11 6 9.5
2011-10-27 07:11:10 51°17.856 2°52.338 10.9 10.9 8 9.6
2011-10-27 07:11:15 51°17.871 2°52.341 11 11 6 9.7
2011-10-27 07:11:20 51°17.886 2°52.344 10.2 11 7 9.7
2011-10-27 07:11:25 51°17.901 2°52.347 10.3 11 7 9.6
2011-10-27 07:11:29 51°17.913 2°52.35 11.9 10.9 10 9.7
2011-10-27 07:11:35 51°17.931 2°52.356 13.4 10.9 11 9.7
2011-10-27 07:11:40 51°17.946 2°52.36 14.4 10.9 11 9.7
2011-10-27 07:11:45 51°17.96 2°52.365 14.3 10.9 11 9.6
2011-10-27 07:11:50 51°17.975 2°52.37 14.7 10.9 12 9.9
2011-10-27 07:11:55 51°17.99 2°52.376 15.5 10.9 13 9.7
2011-10-27 07:12:00 51°18.004 2°52.382 16.6 10.9 14 9.7
2011-10-27 07:12:05 51°18.019 2°52.387 17 10.8 13 9.6
2011-10-27 07:12:10 51°18.033 2°52.393 16.8 10.8 14 9.8
2011-10-27 07:12:15 51°18.048 2°52.399 16.8 10.9 15 9.7
2011-10-27 07:12:20 51°18.062 2°52.407 19.3 10.8 21 9.7
2011-10-27 07:12:25 51°18.076 2°52.417 23 10.7 23 9.8
2011-10-27 07:12:30 51°18.089 2°52.427 25.5 10.7 26 10
2011-10-27 07:12:35 51°18.102 2°52.437 27.1 10.7 26 10.1
2011-10-27 07:12:40 51°18.115 2°52.449 29.1 10.6 31 9.9
2011-10-27 07:12:45 51°18.128 2°52.462 31.8 10.6 31 9.8
2011-10-27 07:12:50 51°18.14 2°52.475 33.1 10.7 34 9.9
2011-10-27 07:12:55 51°18.152 2°52.49 35.2 10.7 37 9.8
2011-10-27 07:13:00 51°18.163 2°52.505 38 10.7 41 10.2
2011-10-27 07:13:05 51°18.173 2°52.521 41.6 10.6 43 10.1
2011-10-27 07:13:10 51°18.183 2°52.538 43.3 10.7 46 10
2011-10-27 07:13:15 51°18.194 2°52.555 44.8 10.7 47 10.1
2011-10-27 07:13:20 51°18.203 2°52.573 46.5 10.7 50 10.1
2011-10-27 07:13:25 51°18.212 2°52.592 49.3 10.7 53 10
2011-10-27 07:13:29 51°18.219 2°52.607 51 10.7 55 10
2011-10-27 07:13:35 51°18.229 2°52.631 53.1 10.7 58 9.9
2011-10-27 07:13:40 51°18.236 2°52.652 56 10.7 60 10.3
2011-10-27 07:13:45 51°18.243 2°52.673 57.6 10.7 61 10.1
2011-10-27 07:13:49 51°18.248 2°52.69 59.1 10.7 63 10.4
2011-10-27 07:13:55 51°18.256 2°52.716 60.3 10.8 65 10.3
2011-10-27 07:14:00 51°18.262 2°52.738 62 10.8 67 10.1
2011-10-27 07:14:05 51°18.268 2°52.759 63.2 10.7 67 10.1
2011-10-27 07:14:10 51°18.273 2°52.781 64 10.7 68 10.1
2011-10-27 07:14:15 51°18.279 2°52.804 65.1 10.8 70 10.4
2011-10-27 07:14:20 51°18.283 2°52.826 66.1 10.8 71 10.3
2011-10-27 07:14:25 51°18.288 2°52.849 67 10.8 71 10.4
2011-10-27 07:14:30 51°18.293 2°52.872 67.6 10.8 71 10.2
2011-10-27 07:14:35 51°18.298 2°52.894 67.5 10.9 70 10.2
2011-10-27 07:14:40 51°18.303 2°52.917 66.8 10.8 71 10.3
2011-10-27 07:14:45 51°18.308 2°52.94 67.5 10.9 72 10.1
2011-10-27 07:14:49 51°18.312 2°52.958 67.1 10.8 70 10.1
2011-10-27 07:14:55 51°18.317 2°52.985 66.9 11 72 10.3
2011-10-27 07:15:00 51°18.322 2°53.008 67.9 10.9 72 10.4
2011-10-27 07:15:05 51°18.326 2°53.031 69 10.9 74 10.3
2011-10-27 07:15:10 51°18.33 2°53.054 69.8 10.9 73 10.3
2011-10-27 07:15:15 51°18.335 2°53.078 69.3 11 73 10.3
2011-10-27 07:15:20 51°18.339 2°53.101 69 11 73 10.1
2011-10-27 07:15:25 51°18.344 2°53.124 69.4 10.9 73 10.3
2011-10-27 07:15:30 51°18.348 2°53.147 69.8 10.9 74 10.3
2011-10-27 07:15:35 51°18.353 2°53.17 69.8 10.9 73 10
2011-10-27 07:15:40 51°18.357 2°53.193 69.5 10.9 72 10.3
2011-10-27 07:15:45 51°18.362 2°53.216 68.8 10.9 72 10.2
2011-10-27 07:15:50 51°18.366 2°53.239 68.9 10.8 73 10.4
2011-10-27 07:15:55 51°18.371 2°53.262 68.7 10.9 71 10.3
2011-10-27 07:16:00 51°18.376 2°53.284 68 10.9 71 10.3
2011-10-27 07:16:05 51°18.381 2°53.307 67.4 10.9 70 10.3
2011-10-27 07:16:10 51°18.387 2°53.329 66.8 10.9 70 10.3
2011-10-27 07:16:15 51°18.392 2°53.352 66.6 10.8 70 10.4
2011-10-27 07:16:20 51°18.397 2°53.374 66.5 10.9 68 10.3
2011-10-27 07:16:25 51°18.403 2°53.396 65.9 10.8 68 10.4
2011-10-27 07:16:30 51°18.408 2°53.418 65.5 10.8 68 10.3
2011-10-27 07:16:35 51°18.414 2°53.441 65.4 10.8 68 10.3
2011-10-27 07:16:40 51°18.42 2°53.463 65.4 10.9 68 10.1
2011-10-27 07:16:45 51°18.425 2°53.485 65.5 10.8 68 10.3
2011-10-27 07:16:50 51°18.431 2°53.508 65.4 10.8 69 10.4
2011-10-27 07:16:55 51°18.436 2°53.53 65.3 10.8 68 10.3
2011-10-27 07:17:00 51°18.442 2°53.552 65.4 10.9 68 10.4
2011-10-27 07:17:05 51°18.448 2°53.574 65.3 10.9 67 10.4
2011-10-27 07:17:10 51°18.453 2°53.597 64.9 10.8 68 10.3
2011-10-27 07:17:15 51°18.459 2°53.618 64.8 10.8 67 10.3
2011-10-27 07:17:20 51°18.465 2°53.64 64.1 10.8 67 10.3
2011-10-27 07:17:25 51°18.471 2°53.662 64 10.9 67 10.4
2011-10-27 07:17:30 51°18.477 2°53.684 64.2 10.9 67 10.4
2011-10-27 07:17:35 51°18.483 2°53.706 64.3 10.8 67 10.3
2011-10-27 07:17:40 51°18.489 2°53.728 64.3 10.8 67 10.1
2011-10-27 07:17:45 51°18.495 2°53.75 64 10.8 67 10.2
2011-10-27 07:17:50 51°18.501 2°53.772 64.1 10.8 67 10.3
2011-10-27 07:17:55 51°18.507 2°53.794 64.3 10.8 67 10.3
2011-10-27 07:18:00 51°18.513 2°53.816 64.5 10.8 66 10.2
2011-10-27 07:18:05 51°18.519 2°53.838 64.3 10.8 66 10.3
2011-10-27 07:18:10 51°18.525 2°53.859 63.5 10.8 65 10.4
2011-10-27 07:18:15 51°18.531 2°53.881 63.2 10.8 65 10.2
2011-10-27 07:18:20 51°18.538 2°53.903 62.7 10.8 64 10.3
2011-10-27 07:18:25 51°18.545 2°53.924 62.2 10.8 64 10.3
2011-10-27 07:18:30 51°18.552 2°53.945 61.7 10.8 63 10.3
2011-10-27 07:18:35 51°18.559 2°53.966 61.2 10.8 62 10.4
2011-10-27 07:18:40 51°18.566 2°53.988 60.2 10.8 62 10.2
2011-10-27 07:18:45 51°18.573 2°54.009 60.3 10.8 62 10.4
2011-10-27 07:18:50 51°18.58 2°54.03 60.3 10.8 62 10.5
2011-10-27 07:18:55 51°18.587 2°54.051 60.2 10.8 62 10.4
2011-10-27 07:19:00 51°18.594 2°54.072 60.1 10.8 62 10.2
2011-10-27 07:19:05 51°18.601 2°54.093 60 10.8 61 10.4
2011-10-27 07:19:10 51°18.608 2°54.114 59.7 10.8 61 10.4
2011-10-27 07:19:15 51°18.615 2°54.135 59.7 10.8 62 10.3
2011-10-27 07:19:20 51°18.623 2°54.156 60.2 10.9 61 10.3
2011-10-27 07:19:25 51°18.63 2°54.178 60.2 10.9 62 10.2
2011-10-27 07:19:30 51°18.636 2°54.199 60.1 10.8 62 10.3
2011-10-27 07:19:35 51°18.643 2°54.22 60.6 10.9 63 10.4
2011-10-27 07:19:40 51°18.651 2°54.241 60.6 10.8 62 10.4
2011-10-27 07:19:45 51°18.658 2°54.262 60.3 10.8 62 10.4
2011-10-27 07:19:50 51°18.665 2°54.283 60.3 10.8 62 10.3
2011-10-27 07:19:55 51°18.672 2°54.305 60.6 10.8 62 10.3
2011-10-27 07:20:00 51°18.679 2°54.326 60.5 10.8 61 10.4
2011-10-27 07:20:05 51°18.686 2°54.347 60.3 10.8 63 10.3
2011-10-27 07:20:10 51°18.693 2°54.368 60.4 10.8 63 10.3
2011-10-27 07:20:15 51°18.7 2°54.39 60.6 10.9 63 10.3
2011-10-27 07:20:20 51°18.706 2°54.411 61.1 10.9 64 10.3
2011-10-27 07:20:25 51°18.713 2°54.433 62 10.8 65 10.2
2011-10-27 07:20:29 51°18.718 2°54.45 62.7 10.9 66 10.3
2011-10-27 07:20:35 51°18.725 2°54.477 63.4 10.8 66 10.4
2011-10-27 07:20:40 51°18.731 2°54.498 64.1 10.8 67 10.3
2011-10-27 07:20:45 51°18.737 2°54.521 64.5 10.9 67 10.3
2011-10-27 07:20:50 51°18.743 2°54.543 64.7 10.9 67 10.3
2011-10-27 07:20:55 51°18.748 2°54.565 65.1 10.9 69 10.4
2011-10-27 07:21:00 51°18.754 2°54.588 65.9 10.9 68 10.3
2011-10-27 07:21:05 51°18.759 2°54.61 66.1 10.9 70 10.4
2011-10-27 07:21:10 51°18.764 2°54.633 66.9 10.8 69 10.4
2011-10-27 07:21:15 51°18.769 2°54.655 66.9 10.9 70 10.5
2011-10-27 07:21:20 51°18.774 2°54.678 67.2 10.9 70 10.4
2011-10-27 07:21:25 51°18.78 2°54.7 67.1 10.9 69 10.4
2011-10-27 07:21:30 51°18.785 2°54.723 66.7 10.9 69 10.3
2011-10-27 07:21:35 51°18.791 2°54.745 66.9 10.9 69 10.4
2011-10-27 07:21:40 51°18.796 2°54.767 66.9 10.8 68 10.5
2011-10-27 07:21:45 51°18.802 2°54.79 66.5 10.8 69 10.4
2011-10-27 07:21:50 51°18.808 2°54.812 66.1 10.9 68 10.4
2011-10-27 07:21:55 51°18.813 2°54.834 65.9 10.8 68 10.4
2011-10-27 07:22:00 51°18.819 2°54.856 65.9 10.8 68 10.4
2011-10-27 07:22:05 51°18.825 2°54.879 65.7 10.9 67 10.4
2011-10-27 07:22:10 51°18.831 2°54.9 65.4 10.8 68 10.3
2011-10-27 07:22:15 51°18.836 2°54.923 65.4 10.8 68 10.4
2011-10-27 07:22:20 51°18.842 2°54.945 65.6 10.8 68 10.4
2011-10-27 07:22:25 51°18.847 2°54.967 65.9 10.8 69 10.3
2011-10-27 07:22:29 51°18.852 2°54.985 66.2 10.8 67 10.4
2011-10-27 07:22:35 51°18.859 2°55.012 65.8 10.8 68 10.3
2011-10-27 07:22:40 51°18.865 2°55.034 65.9 10.8 67 10.3
2011-10-27 07:22:45 51°18.871 2°55.056 65.3 10.8 66 10.4
2011-10-27 07:22:49 51°18.876 2°55.073 64.7 10.8 66 10.3
2011-10-27 07:22:55 51°18.883 2°55.099 64.2 10.8 65 10.4
2011-10-27 07:23:00 51°18.89 2°55.121 63.2 10.8 63 10.3
2011-10-27 07:23:05 51°18.897 2°55.142 61.8 10.8 62 10.4
2011-10-27 07:23:10 51°18.904 2°55.163 61.2 10.8 63 10.3
2011-10-27 07:23:15 51°18.911 2°55.184 61.2 10.8 63 10.3
2011-10-27 07:23:20 51°18.917 2°55.206 61.8 10.8 64 10.3
2011-10-27 07:23:25 51°18.924 2°55.227 62.5 10.8 65 10.3
2011-10-27 07:23:30 51°18.93 2°55.249 63 10.8 65 10.3
2011-10-27 07:23:35 51°18.937 2°55.271 63.2 10.8 65 10.4
2011-10-27 07:23:40 51°18.943 2°55.292 63.2 10.8 65 10.2
2011-10-27 07:23:45 51°18.949 2°55.314 63.2 10.8 64 10.3
2011-10-27 07:23:50 51°18.956 2°55.335 62.9 10.8 64 10.3
2011-10-27 07:23:55 51°18.963 2°55.357 62.6 10.8 64 10.3
2011-10-27 07:24:00 51°18.969 2°55.378 62.6 10.8 64 10.3
2011-10-27 07:24:05 51°18.976 2°55.4 62.5 10.8 64 10.3
2011-10-27 07:24:10 51°18.983 2°55.421 62.3 10.7 64 10.3
2011-10-27 07:24:15 51°18.989 2°55.443 62.7 10.8 66 10.3
2011-10-27 07:24:20 51°18.995 2°55.464 63.4 10.8 65 10.2
2011-10-27 07:24:25 51°19.001 2°55.486 64.1 10.8 67 10.3
2011-10-27 07:24:29 51°19.006 2°55.504 64.9 10.8 67 10.3
2011-10-27 07:24:35 51°19.012 2°55.531 65.9 10.9 68 10.3
2011-10-27 07:24:40 51°19.018 2°55.553 66.1 10.9 68 10.4
2011-10-27 07:24:45 51°19.023 2°55.575 66.5 10.8 69 10.3
2011-10-27 07:24:49 51°19.027 2°55.593 67.3 10.8 70 10.3
2011-10-27 07:24:55 51°19.034 2°55.62 67.7 10.8 69 10.3
2011-10-27 07:25:00 51°19.039 2°55.642 66.8 10.8 68 10.3
2011-10-27 07:25:05 51°19.045 2°55.664 66.4 10.7 68 10.3
2011-10-27 07:25:09 51°19.05 2°55.682 66.1 10.8 67 10.2
2011-10-27 07:25:15 51°19.057 2°55.708 65.9 10.8 67 10.3
2011-10-27 07:25:20 51°19.063 2°55.73 65.4 10.8 66 10.3
2011-10-27 07:25:25 51°19.069 2°55.752 64.9 10.7 66 10.2
2011-10-27 07:25:29 51°19.073 2°55.77 64.7 10.8 66 10.2
2011-10-27 07:25:35 51°19.081 2°55.795 64.7 10.8 66 10.3
2011-10-27 07:25:40 51°19.087 2°55.817 64.3 10.7 65 10.2
2011-10-27 07:25:45 51°19.093 2°55.839 64.3 10.8 65 10.2
2011-10-27 07:25:50 51°19.1 2°55.86 64.4 10.8 65 10.2
2011-10-27 07:25:55 51°19.106 2°55.882 64 10.8 64 10.2
2011-10-27 07:26:00 51°19.112 2°55.903 63.2 10.8 65 10.2
2011-10-27 07:26:05 51°19.119 2°55.925 62.9 10.8 64 10.3
2011-10-27 07:26:10 51°19.126 2°55.946 62.8 10.8 64 10.2
2011-10-27 07:26:15 51°19.132 2°55.967 62.7 10.8 63 10.3
2011-10-27 07:26:20 51°19.14 2°55.988 62 10.7 63 10.1
2011-10-27 07:26:25 51°19.146 2°56.009 62.1 10.7 64 10.2
2011-10-27 07:26:30 51°19.153 2°56.031 62.7 10.8 64 10.2
2011-10-27 07:26:35 51°19.159 2°56.052 62.9 10.8 64 10.2
2011-10-27 07:26:40 51°19.166 2°56.073 63.1 10.7 64 10.3
2011-10-27 07:26:45 51°19.172 2°56.095 63.2 10.7 64 10.2
2011-10-27 07:26:49 51°19.177 2°56.112 63.1 10.8 64 10.1
2011-10-27 07:26:55 51°19.185 2°56.138 63.2 10.7 65 10.2
2011-10-27 07:27:00 51°19.191 2°56.16 63.2 10.7 64 10.1
2011-10-27 07:27:05 51°19.198 2°56.181 63.3 10.7 65 10.1
2011-10-27 07:27:10 51°19.204 2°56.203 63.6 10.8 65 10.1
2011-10-27 07:27:15 51°19.21 2°56.224 63.8 10.8 66 10.1
2011-10-27 07:27:20 51°19.216 2°56.246 64 10.7 67 10.1
2011-10-27 07:27:25 51°19.222 2°56.268 64.6 10.8 66 10.2
2011-10-27 07:27:30 51°19.229 2°56.289 64.8 10.8 65 10.2
2011-10-27 07:27:35 51°19.234 2°56.311 64.7 10.8 67 10.3
2011-10-27 07:27:40 51°19.241 2°56.333 65 10.8 66 10
2011-10-27 07:27:45 51°19.247 2°56.355 65 10.8 66 10.2
2011-10-27 07:27:50 51°19.253 2°56.377 65 10.7 67 10.1
2011-10-27 07:27:55 51°19.258 2°56.399 65.2 10.7 67 10.1
2011-10-27 07:28:00 51°19.265 2°56.42 65.4 10.7 66 10.1
2011-10-27 07:28:05 51°19.27 2°56.442 65.4 10.7 67 10.1
2011-10-27 07:28:10 51°19.276 2°56.464 65.8 10.7 66 10.1
2011-10-27 07:28:15 51°19.282 2°56.485 65.4 10.7 66 10.1
2011-10-27 07:28:20 51°19.288 2°56.507 65.4 10.6 66 10.1
2011-10-27 07:28:25 51°19.294 2°56.529 65.7 10.7 66 10.1
2011-10-27 07:28:30 51°19.3 2°56.551 65.6 10.7 67 10.2
2011-10-27 07:28:35 51°19.305 2°56.572 65.9 10.6 67 10.1
2011-10-27 07:28:40 51°19.311 2°56.594 66 10.7 66 10.2
2011-10-27 07:28:45 51°19.318 2°56.615 66.1 10.6 66 10.1
2011-10-27 07:28:50 51°19.323 2°56.637 65.9 10.6 67 10.1
2011-10-27 07:28:55 51°19.329 2°56.659 65.9 10.7 66 10.1
2011-10-27 07:29:00 51°19.335 2°56.681 65.9 10.6 67 10.1
2011-10-27 07:29:05 51°19.341 2°56.702 65.9 10.6 67 10.1
2011-10-27 07:29:10 51°19.346 2°56.724 66.1 10.6 67 10.2
2011-10-27 07:29:15 51°19.352 2°56.745 66.1 10.6 67 10.1
2011-10-27 07:29:20 51°19.358 2°56.767 65.8 10.6 66 10.1
2011-10-27 07:29:25 51°19.364 2°56.789 65.4 10.6 65 10
2011-10-27 07:29:30 51°19.37 2°56.81 65 10.6 65 10
2011-10-27 07:29:35 51°19.377 2°56.831 64.7 10.6 65 10
2011-10-27 07:29:40 51°19.383 2°56.852 64.1 10.6 64 10
2011-10-27 07:29:45 51°19.39 2°56.873 63.4 10.6 63 10
2011-10-27 07:29:50 51°19.396 2°56.894 62.8 10.6 63 10
2011-10-27 07:29:55 51°19.403 2°56.914 62.2 10.6 62 10
2011-10-27 07:30:00 51°19.41 2°56.935 61.7 10.6 62 10
2011-10-27 07:30:05 51°19.417 2°56.956 61.7 10.6 62 10
2011-10-27 07:30:10 51°19.424 2°56.976 61.7 10.6 62 10
2011-10-27 07:30:15 51°19.431 2°56.997 62 10.6 62 10
2011-10-27 07:30:20 51°19.437 2°57.018 62 10.6 63 10.1
2011-10-27 07:30:25 51°19.444 2°57.039 62.1 10.6 64 10
2011-10-27 07:30:30 51°19.451 2°57.06 63 10.6 64 10
2011-10-27 07:30:35 51°19.457 2°57.081 63 10.6 63 10
2011-10-27 07:30:40 51°19.464 2°57.102 62.6 10.6 63 10
2011-10-27 07:30:45 51°19.47 2°57.123 62.5 10.6 63 10
2011-10-27 07:30:50 51°19.477 2°57.144 62.8 10.6 63 10
2011-10-27 07:30:55 51°19.483 2°57.165 63.3 10.6 64 10
2011-10-27 07:31:00 51°19.49 2°57.186 63.4 10.6 64 10
2011-10-27 07:31:05 51°19.496 2°57.208 64 10.6 66 10
2011-10-27 07:31:10 51°19.502 2°57.229 64.6 10.6 65 10
2011-10-27 07:31:15 51°19.508 2°57.25 64.7 10.6 64 10
2011-10-27 07:31:20 51°19.515 2°57.271 63.5 10.6 62 10.1
2011-10-27 07:31:25 51°19.522 2°57.292 62.5 10.6 64 10
2011-10-27 07:31:29 51°19.527 2°57.309 62.6 10.6 63 10
2011-10-27 07:31:35 51°19.535 2°57.334 62.6 10.7 63 10.1
2011-10-27 07:31:40 51°19.542 2°57.355 62.7 10.6 63 10
2011-10-27 07:31:45 51°19.548 2°57.377 62.9 10.6 64 10
2011-10-27 07:31:49 51°19.553 2°57.393 63.2 10.7 64 10
2011-10-27 07:31:55 51°19.561 2°57.419 63.8 10.6 66 10
2011-10-27 07:32:00 51°19.567 2°57.441 64.5 10.7 67 10
2011-10-27 07:32:05 51°19.572 2°57.463 65.4 10.7 67 10
2011-10-27 07:32:10 51°19.578 2°57.485 66 10.7 67 10
2011-10-27 07:32:15 51°19.584 2°57.506 66.4 10.6 68 10
2011-10-27 07:32:20 51°19.589 2°57.528 67.5 10.6 68 10
2011-10-27 07:32:25 51°19.595 2°57.55 66.7 10.6 67 9.9
2011-10-27 07:32:30 51°19.601 2°57.571 66.4 10.6 68 10
2011-10-27 07:32:35 51°19.607 2°57.593 66.4 10.6 67 10
2011-10-27 07:32:40 51°19.612 2°57.615 66.6 10.6 68 10
2011-10-27 07:32:45 51°19.618 2°57.636 66.9 10.6 68 9.9
2011-10-27 07:32:50 51°19.623 2°57.658 66.9 10.6 69 10
2011-10-27 07:32:55 51°19.629 2°57.68 67.2 10.6 68 10
2011-10-27 07:33:00 51°19.634 2°57.702 66.9 10.6 67 9.9
2011-10-27 07:33:05 51°19.64 2°57.723 66.6 10.6 66 10
2011-10-27 07:33:10 51°19.646 2°57.745 65.7 10.6 65 9.9
2011-10-27 07:33:15 51°19.653 2°57.766 65.1 10.6 64 9.9
2011-10-27 07:33:20 51°19.659 2°57.787 64 10.6 64 10
2011-10-27 07:33:25 51°19.666 2°57.808 63.5 10.5 63 9.9
2011-10-27 07:33:29 51°19.671 2°57.824 63 10.6 63 9.9
2011-10-27 07:33:35 51°19.679 2°57.849 62.7 10.6 63 10.1
2011-10-27 07:33:40 51°19.685 2°57.871 63.4 10.5 65 9.9
2011-10-27 07:33:45 51°19.692 2°57.892 64.2 10.6 65 10
2011-10-27 07:33:49 51°19.696 2°57.909 64.8 10.7 65 9.9
2011-10-27 07:33:55 51°19.704 2°57.934 64.1 10.6 63 9.9
2011-10-27 07:34:00 51°19.711 2°57.955 64 10.6 64 9.9
2011-10-27 07:34:05 51°19.717 2°57.977 63.7 10.7 64 9.9
2011-10-27 07:34:09 51°19.722 2°57.994 64.4 10.6 66 9.9
2011-10-27 07:34:15 51°19.73 2°58.019 65.1 10.6 67 9.9
2011-10-27 07:34:20 51°19.735 2°58.041 66.1 10.6 67 9.9
2011-10-27 07:34:25 51°19.741 2°58.063 66.5 10.6 68 9.9
2011-10-27 07:34:29 51°19.745 2°58.08 67 10.6 68 9.8
2011-10-27 07:34:35 51°19.751 2°58.107 67.5 10.6 68 9.8
2011-10-27 07:34:40 51°19.757 2°58.128 67.6 10.5 69 9.8
2011-10-27 07:34:45 51°19.762 2°58.15 68 10.6 69 9.8
2011-10-27 07:34:50 51°19.767 2°58.172 68 10.5 69 9.7
2011-10-27 07:34:55 51°19.772 2°58.193 68.3 10.5 69 9.7
2011-10-27 07:35:00 51°19.777 2°58.215 68.2 10.5 69 9.8
2011-10-27 07:35:05 51°19.782 2°58.237 67.6 10.5 69 9.7
2011-10-27 07:35:10 51°19.787 2°58.258 67.7 10.4 69 9.7
2011-10-27 07:35:15 51°19.793 2°58.28 67.9 10.4 70 9.7
2011-10-27 07:35:20 51°19.798 2°58.301 68.4 10.5 69 9.8
2011-10-27 07:35:25 51°19.803 2°58.323 68.5 10.4 69 9.7
2011-10-27 07:35:30 51°19.808 2°58.344 67.7 10.4 68 9.6
2011-10-27 07:35:35 51°19.814 2°58.366 67.5 10.5 67 9.7
2011-10-27 07:35:40 51°19.82 2°58.387 66.5 10.5 67 9.7
2011-10-27 07:35:45 51°19.826 2°58.408 66.2 10.5 66 9.7
2011-10-27 07:35:49 51°19.831 2°58.425 65.6 10.4 65 9.6
2011-10-27 07:35:55 51°19.838 2°58.45 64.9 10.5 64 9.7
2011-10-27 07:36:00 51°19.845 2°58.47 64 10.4 64 9.7
2011-10-27 07:36:05 51°19.851 2°58.491 64.1 10.4 64 9.6
2011-10-27 07:36:10 51°19.857 2°58.512 63.9 10.5 63 9.7
2011-10-27 07:36:15 51°19.864 2°58.532 62.5 10.4 62 9.6
2011-10-27 07:36:20 51°19.871 2°58.553 62.5 10.4 64 9.7
2011-10-27 07:36:25 51°19.877 2°58.574 63.4 10.5 64 9.8
2011-10-27 07:36:30 51°19.883 2°58.595 63.9 10.4 64 9.7
2011-10-27 07:36:35 51°19.89 2°58.615 64.5 10.4 65 9.7
2011-10-27 07:36:40 51°19.896 2°58.636 65.1 10.4 65 9.7
2011-10-27 07:36:45 51°19.902 2°58.657 65.4 10.5 65 9.6
2011-10-27 07:36:50 51°19.907 2°58.679 65.8 10.5 67 9.7
2011-10-27 07:36:55 51°19.912 2°58.7 66.4 10.4 67 9.7
2011-10-27 07:37:00 51°19.918 2°58.721 66.9 10.4 68 9.7
2011-10-27 07:37:05 51°19.923 2°58.743 67.3 10.5 67 9.7
2011-10-27 07:37:10 51°19.929 2°58.764 66.7 10.4 68 9.7
2011-10-27 07:37:15 51°19.934 2°58.785 66.9 10.4 69 9.6
2011-10-27 07:37:20 51°19.94 2°58.806 67.6 10.5 68 9.6
2011-10-27 07:37:25 51°19.945 2°58.828 67.8 10.4 68 9.7
2011-10-27 07:37:30 51°19.95 2°58.849 68.3 10.3 69 9.6
2011-10-27 07:37:35 51°19.955 2°58.871 68.7 10.4 69 9.5
2011-10-27 07:37:40 51°19.96 2°58.892 69 10.4 69 9.6
2011-10-27 07:37:45 51°19.965 2°58.913 68.9 10.4 68 9.6
2011-10-27 07:37:50 51°19.971 2°58.935 68.2 10.3 68 9.5
2011-10-27 07:37:55 51°19.976 2°58.956 68.1 10.3 67 9.6
2011-10-27 07:38:00 51°19.982 2°58.977 67.7 10.4 67 9.7
2011-10-27 07:38:05 51°19.987 2°58.998 67.5 10.4 68 9.6
2011-10-27 07:38:10 51°19.993 2°59.019 67.2 10.4 67 9.6
2011-10-27 07:38:15 51°19.998 2°59.04 66.9 10.3 67 9.6
2011-10-27 07:38:20 51°20.004 2°59.061 66.6 10.3 66 9.6
2011-10-27 07:38:25 51°20.01 2°59.082 66.1 10.3 66 9.5
2011-10-27 07:38:30 51°20.016 2°59.103 66.1 10.3 64 9.5
2011-10-27 07:38:35 51°20.022 2°59.123 65.6 10.3 65 9.6
2011-10-27 07:38:40 51°20.028 2°59.144 65.5 10.3 65 9.6
2011-10-27 07:38:45 51°20.034 2°59.165 65.4 10.3 64 9.6
2011-10-27 07:38:50 51°20.041 2°59.185 64.9 10.3 63 9.5
2011-10-27 07:38:55 51°20.047 2°59.205 64.7 10.2 64 9.5
2011-10-27 07:39:00 51°20.054 2°59.226 64.8 10.3 64 9.5
2011-10-27 07:39:05 51°20.06 2°59.246 64.8 10.3 64 9.5
2011-10-27 07:39:10 51°20.066 2°59.267 64.7 10.2 64 9.5
2011-10-27 07:39:15 51°20.072 2°59.287 64.8 10.3 64 9.5
2011-10-27 07:39:20 51°20.078 2°59.307 65.1 10.3 66 9.5
2011-10-27 07:39:25 51°20.084 2°59.328 65.6 10.2 65 9.5
2011-10-27 07:39:30 51°20.09 2°59.348 65.7 10.2 65 9.5
2011-10-27 07:39:35 51°20.096 2°59.368 65.4 10.3 64 9.6
2011-10-27 07:39:40 51°20.102 2°59.388 65 10.2 64 9.6
2011-10-27 07:39:45 51°20.108 2°59.409 65.3 10.2 66 9.5
2011-10-27 07:39:50 51°20.114 2°59.43 66.2 10.2 65 9.5
2011-10-27 07:39:55 51°20.119 2°59.451 66.5 10.2 66 9.6
2011-10-27 07:40:00 51°20.125 2°59.471 66.8 10.1 66 9.5
2011-10-27 07:40:05 51°20.131 2°59.492 67.5 10.2 67 9.5
2011-10-27 07:40:10 51°20.136 2°59.513 68.2 10.2 68 9.5
2011-10-27 07:40:15 51°20.141 2°59.533 68.7 10.1 68 9.5
2011-10-27 07:40:20 51°20.146 2°59.555 69 10.1 68 9.5
2011-10-27 07:40:25 51°20.151 2°59.576 69.2 10.2 69 9.5
2011-10-27 07:40:29 51°20.155 2°59.592 69.4 10.1 69 9.5
2011-10-27 07:40:35 51°20.161 2°59.618 69.7 10.1 70 9.5
2011-10-27 07:40:40 51°20.165 2°59.639 70.3 10.1 71 9.4
2011-10-27 07:40:45 51°20.17 2°59.66 70.9 10.2 71 9.5
2011-10-27 07:40:50 51°20.175 2°59.681 70.5 10.2 71 9.5
2011-10-27 07:40:55 51°20.179 2°59.703 70.7 10.1 71 9.4
2011-10-27 07:41:00 51°20.183 2°59.724 70.7 10.2 71 9.4
2011-10-27 07:41:05 51°20.188 2°59.745 70.8 10.2 70 9.5
2011-10-27 07:41:10 51°20.193 2°59.766 70.2 10.2 70 9.5
2011-10-27 07:41:15 51°20.198 2°59.787 70.1 10.2 70 9.4
2011-10-27 07:41:20 51°20.203 2°59.809 70.1 10.2 70 9.4
2011-10-27 07:41:25 51°20.208 2°59.829 69.8 10.1 69 9.5
2011-10-27 07:41:29 51°20.213 2°59.846 67.9 10.2 66 9.4
2011-10-27 07:41:35 51°20.22 2°59.87 66.3 10.1 64 9.4
2011-10-27 07:41:40 51°20.226 2°59.89 65 10.1 63 9.4
2011-10-27 07:41:45 51°20.233 2°59.91 64.2 10.1 63 9.4
2011-10-27 07:41:50 51°20.239 2°59.93 63.7 10.2 63 9.5
2011-10-27 07:41:55 51°20.246 2°59.949 63.2 10.1 62 9.5
2011-10-27 07:42:00 51°20.252 2°59.97 63.1 10.1 62 9.4
2011-10-27 07:42:05 51°20.259 2°59.989 63.1 10.2 63 9.4
2011-10-27 07:42:10 51°20.265 3°0.009 63.4 10.2 62 9.5
2011-10-27 07:42:15 51°20.271 3°0.03 63.4 10.2 64 9.5
2011-10-27 07:42:20 51°20.277 3°0.05 64.5 10.2 65 9.5
2011-10-27 07:42:25 51°20.283 3°0.071 65.3 10.2 66 9.4
2011-10-27 07:42:30 51°20.288 3°0.092 66.4 10.2 68 9.4
2011-10-27 07:42:35 51°20.293 3°0.113 67.8 10.2 69 9.4
2011-10-27 07:42:40 51°20.298 3°0.134 69.1 10.2 70 9.4
2011-10-27 07:42:45 51°20.303 3°0.156 70.1 10.2 70 9.4
2011-10-27 07:42:50 51°20.307 3°0.177 70.4 10.2 70 9.4
2011-10-27 07:42:55 51°20.312 3°0.199 71.2 10.2 72 9.4
2011-10-27 07:43:00 51°20.316 3°0.221 71.4 10.3 73 9.4
2011-10-27 07:43:05 51°20.32 3°0.242 71.2 10.3 73 9.4
2011-10-27 07:43:10 51°20.324 3°0.264 71.6 10.2 73 9.5
2011-10-27 07:43:15 51°20.329 3°0.285 71.9 10.1 72 9.4
2011-10-27 07:43:20 51°20.333 3°0.306 71.9 10.1 71 9.4
2011-10-27 07:43:25 51°20.338 3°0.328 71.3 10.2 71 9.4
2011-10-27 07:43:30 51°20.343 3°0.349 71.2 10.2 71 9.5
2011-10-27 07:43:35 51°20.347 3°0.37 71 10.2 71 9.5
2011-10-27 07:43:40 51°20.352 3°0.391 70.6 10.2 70 9.5
2011-10-27 07:43:45 51°20.357 3°0.413 70.3 10.2 71 9.4
2011-10-27 07:43:50 51°20.361 3°0.435 70.6 10.3 71 9.5
2011-10-27 07:43:55 51°20.366 3°0.456 70.1 10.2 71 9.5
2011-10-27 07:44:00 51°20.371 3°0.477 69.8 10.2 70 9.4
2011-10-27 07:44:05 51°20.376 3°0.497 69.8 10.2 69 9.5
2011-10-27 07:44:10 51°20.381 3°0.519 69.5 10.2 69 9.4
2011-10-27 07:44:15 51°20.386 3°0.54 69.5 10.2 69 9.4
2011-10-27 07:44:20 51°20.392 3°0.56 69.4 10.1 69 9.5
2011-10-27 07:44:25 51°20.397 3°0.582 69.2 10.2 68 9.5
2011-10-27 07:44:30 51°20.401 3°0.603 69.2 10.2 69 9.5
2011-10-27 07:44:35 51°20.406 3°0.624 69.2 10.2 69 9.5
2011-10-27 07:44:40 51°20.412 3°0.645 68.9 10.2 69 9.5
2011-10-27 07:44:45 51°20.417 3°0.666 68.8 10.2 68 9.5
2011-10-27 07:44:49 51°20.421 3°0.682 68.8 10.2 68 9.5
2011-10-27 07:44:55 51°20.427 3°0.708 68.5 10.2 69 9.5
2011-10-27 07:45:00 51°20.433 3°0.728 68.6 10.1 67 9.5
2011-10-27 07:45:05 51°20.438 3°0.749 68.4 10.1 67 9.5
2011-10-27 07:45:10 51°20.444 3°0.769 68.2 10.1 67 9.4
2011-10-27 07:45:15 51°20.449 3°0.79 68.1 10.1 66 9.3
2011-10-27 07:45:20 51°20.454 3°0.812 67.8 10.2 68 9.5
2011-10-27 07:45:25 51°20.46 3°0.832 67.6 10.1 67 9.4
2011-10-27 07:45:30 51°20.466 3°0.852 67.4 10.1 66 9.4
2011-10-27 07:45:35 51°20.471 3°0.873 67.3 10.1 66 9.4
2011-10-27 07:45:40 51°20.477 3°0.893 67.4 10.1 66 9.4
2011-10-27 07:45:45 51°20.482 3°0.914 67.1 10.1 67 9.4
2011-10-27 07:45:50 51°20.488 3°0.934 67.1 10.1 66 9.4
2011-10-27 07:45:55 51°20.493 3°0.955 67.1 10.1 66 9.4
2011-10-27 07:46:00 51°20.499 3°0.976 67.1 10.1 67 9.4
2011-10-27 07:46:05 51°20.504 3°0.996 67.6 10.2 66 9.4
2011-10-27 07:46:10 51°20.51 3°1.017 67.4 10.2 67 9.4
2011-10-27 07:46:15 51°20.515 3°1.039 67.7 10.2 68 9.3
2011-10-27 07:46:20 51°20.52 3°1.059 67.8 10.2 68 9.4
2011-10-27 07:46:25 51°20.526 3°1.08 67.8 10.2 67 9.4
2011-10-27 07:46:30 51°20.531 3°1.101 67.6 10.2 68 9.4
2011-10-27 07:46:35 51°20.537 3°1.122 67.6 10.2 68 9.4
2011-10-27 07:46:40 51°20.542 3°1.143 67.8 10.2 67 9.4
2011-10-27 07:46:45 51°20.547 3°1.164 68 10.3 68 9.3
2011-10-27 07:46:50 51°20.553 3°1.185 68.2 10.2 69 9.3
2011-10-27 07:46:55 51°20.558 3°1.206 68.6 10.2 69 9.4
2011-10-27 07:47:00 51°20.563 3°1.228 69 10.3 69 9.3
2011-10-27 07:47:05 51°20.568 3°1.249 69.1 10.3 69 9.3
2011-10-27 07:47:09 51°20.572 3°1.266 68.9 10.3 68 9.3
2011-10-27 07:47:15 51°20.579 3°1.291 68.3 10.3 68 9.3
2011-10-27 07:47:20 51°20.584 3°1.312 68.3 10.3 68 9.3
2011-10-27 07:47:25 51°20.589 3°1.333 68.3 10.3 69 9.3
2011-10-27 07:47:29 51°20.594 3°1.35 68.3 10.3 67 9.2
2011-10-27 07:47:35 51°20.6 3°1.375 68.4 10.3 67 9.2
2011-10-27 07:47:40 51°20.605 3°1.397 68.4 10.3 68 9.3
2011-10-27 07:47:45 51°20.61 3°1.418 68.3 10.3 69 9.3
2011-10-27 07:47:50 51°20.616 3°1.439 68.6 10.3 67 9.3
2011-10-27 07:47:55 51°20.622 3°1.46 67.9 10.3 67 9.3
2011-10-27 07:48:00 51°20.627 3°1.481 67.7 10.3 67 9.2
2011-10-27 07:48:05 51°20.633 3°1.502 67.1 10.3 67 9.2
2011-10-27 07:48:10 51°20.639 3°1.523 67.4 10.3 67 9.2
2011-10-27 07:48:15 51°20.644 3°1.544 67 10.3 67 9.3
2011-10-27 07:48:20 51°20.65 3°1.565 67.2 10.3 67 9.3
2011-10-27 07:48:25 51°20.655 3°1.586 67.5 10.3 67 9.3
2011-10-27 07:48:30 51°20.661 3°1.607 67.6 10.3 67 9.3
2011-10-27 07:48:35 51°20.667 3°1.628 67.6 10.3 67 9.3
2011-10-27 07:48:40 51°20.672 3°1.65 67.8 10.4 67 9.3
2011-10-27 07:48:45 51°20.678 3°1.671 67.9 10.3 68 9.3
2011-10-27 07:48:50 51°20.683 3°1.692 68.2 10.3 69 9.3
2011-10-27 07:48:55 51°20.688 3°1.713 68.6 10.3 69 9.2
2011-10-27 07:49:00 51°20.693 3°1.734 69 10.3 69 9.2
2011-10-27 07:49:05 51°20.698 3°1.756 69.2 10.4 70 9.3
2011-10-27 07:49:09 51°20.702 3°1.773 69.6 10.3 70 9.3
2011-10-27 07:49:15 51°20.708 3°1.799 69.9 10.4 71 9.3
2011-10-27 07:49:20 51°20.712 3°1.821 70.5 10.3 71 9.2
2011-10-27 07:49:25 51°20.717 3°1.843 70.4 10.3 71 9.3
2011-10-27 07:49:29 51°20.721 3°1.86 70.5 10.4 70 9.3
2011-10-27 07:49:35 51°20.726 3°1.886 70.5 10.4 71 9.3
2011-10-27 07:49:40 51°20.731 3°1.908 70.6 10.3 72 9.3
2011-10-27 07:49:45 51°20.735 3°1.93 70.8 10.4 71 9.3
2011-10-27 07:49:50 51°20.741 3°1.951 70.3 10.3 70 9.3
2011-10-27 07:49:55 51°20.746 3°1.972 69.9 10.3 69 9.3
2011-10-27 07:50:00 51°20.751 3°1.994 69.5 10.3 69 9.3
2011-10-27 07:50:05 51°20.756 3°2.016 69 10.4 70 9.4
2011-10-27 07:50:10 51°20.761 3°2.037 68.8 10.4 69 9.4
2011-10-27 07:50:15 51°20.767 3°2.058 68.2 10.3 68 9.4
2011-10-27 07:50:20 51°20.772 3°2.079 68.2 10.4 68 9.4
2011-10-27 07:50:25 51°20.778 3°2.1 68 10.4 68 9.5
2011-10-27 07:50:29 51°20.782 3°2.117 68.1 10.4 67 9.4
2011-10-27 07:50:35 51°20.788 3°2.143 68.3 10.4 68 9.5
2011-10-27 07:50:40 51°20.794 3°2.165 68.4 10.4 68 9.5
2011-10-27 07:50:45 51°20.799 3°2.186 68.4 10.5 68 9.6
2011-10-27 07:50:50 51°20.805 3°2.207 68.2 10.5 67 9.6
2011-10-27 07:50:55 51°20.81 3°2.229 67.7 10.5 67 9.7
2011-10-27 07:51:00 51°20.816 3°2.25 67.6 10.5 67 9.8
2011-10-27 07:51:05 51°20.821 3°2.272 67.2 10.5 68 9.7
2011-10-27 07:51:10 51°20.827 3°2.293 67.3 10.5 66 9.7
2011-10-27 07:51:15 51°20.833 3°2.314 66.8 10.5 67 9.7
2011-10-27 07:51:20 51°20.839 3°2.336 66.5 10.5 65 9.9
2011-10-27 07:51:25 51°20.846 3°2.357 66 10.5 66 9.7
2011-10-27 07:51:30 51°20.851 3°2.378 66.4 10.5 66 9.8
2011-10-27 07:51:35 51°20.857 3°2.4 66.1 10.6 65 9.9
2011-10-27 07:51:40 51°20.863 3°2.421 66.1 10.6 65 9.8
2011-10-27 07:51:45 51°20.869 3°2.442 65.9 10.6 66 9.9
2011-10-27 07:51:50 51°20.875 3°2.463 66 10.5 66 9.9
2011-10-27 07:51:55 51°20.881 3°2.485 66.3 10.5 66 9.8
2011-10-27 07:52:00 51°20.887 3°2.506 66.7 10.6 68 9.8
2011-10-27 07:52:05 51°20.892 3°2.528 67 10.6 67 9.9
2011-10-27 07:52:10 51°20.898 3°2.549 67.2 10.5 68 9.9
2011-10-27 07:52:15 51°20.904 3°2.571 67.8 10.6 67 9.9
2011-10-27 07:52:20 51°20.908 3°2.593 68 10.6 70 10
2011-10-27 07:52:25 51°20.914 3°2.615 68.2 10.5 69 10
2011-10-27 07:52:30 51°20.919 3°2.637 68.6 10.5 69 10
2011-10-27 07:52:35 51°20.924 3°2.659 69.1 10.6 70 9.9
2011-10-27 07:52:40 51°20.929 3°2.681 69.4 10.6 70 9.9
2011-10-27 07:52:45 51°20.935 3°2.702 69.4 10.5 69 10
2011-10-27 07:52:50 51°20.94 3°2.724 69.1 10.6 68 9.9
2011-10-27 07:52:55 51°20.946 3°2.746 68.1 10.6 66 10
2011-10-27 07:53:00 51°20.952 3°2.767 65.9 10.5 64 10
2011-10-27 07:53:05 51°20.958 3°2.788 65 10.5 64 10
2011-10-27 07:53:10 51°20.965 3°2.808 64.5 10.5 63 10
2011-10-27 07:53:15 51°20.972 3°2.829 63.6 10.5 63 10
2011-10-27 07:53:20 51°20.978 3°2.85 63.6 10.6 63 9.9
2011-10-27 07:53:25 51°20.984 3°2.871 64 10.6 65 9.9
2011-10-27 07:53:30 51°20.99 3°2.892 65.2 10.5 67 10.1
2011-10-27 07:53:35 51°20.996 3°2.914 66.4 10.6 65 10
2011-10-27 07:53:40 51°21.002 3°2.935 66.2 10.6 66 10
2011-10-27 07:53:45 51°21.007 3°2.957 66.7 10.6 68 9.9
2011-10-27 07:53:49 51°21.012 3°2.974 67.6 10.6 68 10.1
2011-10-27 07:53:55 51°21.017 3°3.001 68.6 10.5 70 10
2011-10-27 07:54:00 51°21.022 3°3.023 69.5 10.5 71 10
2011-10-27 07:54:05 51°21.027 3°3.045 69.9 10.5 71 10
2011-10-27 07:54:09 51°21.031 3°3.062 70.5 10.5 72 10.1
2011-10-27 07:54:15 51°21.036 3°3.089 71.2 10.5 72 10.1
2011-10-27 07:54:20 51°21.04 3°3.111 71.4 10.5 72 10
2011-10-27 07:54:25 51°21.045 3°3.133 71.6 10.5 73 10.1
2011-10-27 07:54:29 51°21.048 3°3.151 71.1 10.5 71 10.2
2011-10-27 07:54:35 51°21.054 3°3.177 70.6 10.5 71 10.1
2011-10-27 07:54:40 51°21.059 3°3.199 70.7 10.5 71 10.2
2011-10-27 07:54:45 51°21.064 3°3.222 70.8 10.6 71 10.2
2011-10-27 07:54:50 51°21.068 3°3.243 70.6 10.5 71 10.1
2011-10-27 07:54:55 51°21.073 3°3.266 70.4 10.5 72 10.1
2011-10-27 07:55:00 51°21.077 3°3.288 70.9 10.6 72 10.1
2011-10-27 07:55:05 51°21.082 3°3.31 70.5 10.6 71 10
2011-10-27 07:55:10 51°21.087 3°3.332 70 10.5 70 10.1
2011-10-27 07:55:15 51°21.092 3°3.354 69.9 10.6 71 10.1
2011-10-27 07:55:20 51°21.097 3°3.376 70 10.6 70 10.2
2011-10-27 07:55:25 51°21.102 3°3.398 69.7 10.6 70 10
2011-10-27 07:55:30 51°21.108 3°3.42 69.8 10.6 70 10.2
2011-10-27 07:55:35 51°21.112 3°3.442 69.8 10.6 70 10.3
2011-10-27 07:55:40 51°21.117 3°3.464 69.9 10.5 70 10.2
2011-10-27 07:55:45 51°21.122 3°3.486 69.9 10.5 70 10.1
2011-10-27 07:55:50 51°21.128 3°3.507 69.8 10.5 69 10.2
2011-10-27 07:55:55 51°21.132 3°3.529 69.4 10.5 69 10.3
2011-10-27 07:56:00 51°21.138 3°3.551 68.5 10.5 67 10.3
2011-10-27 07:56:05 51°21.144 3°3.572 67.6 10.5 66 10.2
2011-10-27 07:56:09 51°21.149 3°3.589 66.9 10.5 66 10.2
2011-10-27 07:56:15 51°21.156 3°3.614 66.3 10.5 65 10
2011-10-27 07:56:20 51°21.162 3°3.635 66 10.5 65 10.3
2011-10-27 07:56:25 51°21.168 3°3.657 66.1 10.5 65 10.2
2011-10-27 07:56:30 51°21.175 3°3.678 66.1 10.5 65 10.3
2011-10-27 07:56:35 51°21.181 3°3.699 66.1 10.5 65 10.2
2011-10-27 07:56:40 51°21.187 3°3.72 66.2 10.5 66 10.2
2011-10-27 07:56:45 51°21.193 3°3.741 66.3 10.5 65 10.2
2011-10-27 07:56:50 51°21.198 3°3.762 66.4 10.5 66 10.2
2011-10-27 07:56:55 51°21.205 3°3.784 66.8 10.5 65 10.4
2011-10-27 07:57:00 51°21.211 3°3.805 66.4 10.5 66 10.4
2011-10-27 07:57:05 51°21.217 3°3.826 66.6 10.5 65 10.1
2011-10-27 07:57:09 51°21.222 3°3.843 66.9 10.5 66 10.1
2011-10-27 07:57:15 51°21.229 3°3.868 66.9 10.5 65 10.2
2011-10-27 07:57:20 51°21.235 3°3.889 66.9 10.4 66 10.2
2011-10-27 07:57:25 51°21.24 3°3.911 67.3 10.4 67 10.2
2011-10-27 07:57:29 51°21.245 3°3.927 67.7 10.4 67 10.2
2011-10-27 07:57:35 51°21.251 3°3.953 68.3 10.4 69 10.2
2011-10-27 07:57:40 51°21.257 3°3.975 68.9 10.5 68 10.4
2011-10-27 07:57:45 51°21.261 3°3.996 69.5 10.4 70 10.3
2011-10-27 07:57:50 51°21.266 3°4.018 70.3 10.3 70 10.3
2011-10-27 07:57:55 51°21.271 3°4.04 70.7 10.4 71 10.4
2011-10-27 07:58:00 51°21.276 3°4.061 70.5 10.4 70 10.4
2011-10-27 07:58:05 51°21.281 3°4.083 70.4 10.4 71 10.6
2011-10-27 07:58:09 51°21.285 3°4.1 70.5 10.4 69 10.5
2011-10-27 07:58:15 51°21.291 3°4.126 70.1 10.4 70 10.4
2011-10-27 07:58:20 51°21.296 3°4.148 70.1 10.4 70 10.4
2011-10-27 07:58:25 51°21.3 3°4.169 70.1 10.4 71 10.4
2011-10-27 07:58:30 51°21.305 3°4.191 70.5 10.3 71 10.5
2011-10-27 07:58:35 51°21.31 3°4.213 70.5 10.4 69 10.5
2011-10-27 07:58:40 51°21.315 3°4.234 69.6 10.3 69 10.4
2011-10-27 07:58:45 51°21.321 3°4.255 69.1 10.3 68 10.4
2011-10-27 07:58:50 51°21.326 3°4.276 68.8 10.3 68 10.5
2011-10-27 07:58:55 51°21.332 3°4.297 67.6 10.3 66 10.5
2011-10-27 07:59:00 51°21.338 3°4.318 67.2 10.3 66 10.4
2011-10-27 07:59:05 51°21.344 3°4.339 66.9 10.3 65 10.4
2011-10-27 07:59:10 51°21.35 3°4.359 65.7 10.3 65 10.4
2011-10-27 07:59:15 51°21.356 3°4.38 65.6 10.3 65 10.4
2011-10-27 07:59:20 51°21.362 3°4.401 65.6 10.3 65 10.5
2011-10-27 07:59:25 51°21.367 3°4.422 66 10.3 66 10.5
2011-10-27 07:59:30 51°21.373 3°4.442 66.5 10.3 66 10.4
2011-10-27 07:59:35 51°21.379 3°4.463 66.5 10.3 66 10.4
2011-10-27 07:59:40 51°21.385 3°4.484 66.4 10.3 66 10.5
2011-10-27 07:59:45 51°21.391 3°4.505 66.1 10.3 66 10.4
2011-10-27 07:59:50 51°21.397 3°4.526 66.1 10.3 66 10.4
2011-10-27 07:59:55 51°21.402 3°4.547 66.7 10.4 67 10.4
2011-10-27 08:00:00 51°21.408 3°4.568 67 10.3 67 10.4